createdAt,value
2017-10-26T00:00:42.066Z,84.41
2017-10-26T00:03:07.804Z,84.72
2017-10-26T00:05:33.671Z,84.84
2017-10-26T00:07:59.415Z,84.49
2017-10-26T00:10:25.156Z,84.53
2017-10-26T00:12:50.947Z,84.33
2017-10-26T00:15:16.707Z,84.17
2017-10-26T00:17:42.467Z,84.06
2017-10-26T00:20:08.228Z,83.96
2017-10-26T00:22:33.983Z,84.03
2017-10-26T00:24:59.743Z,83.61
2017-10-26T00:27:25.499Z,83.21
2017-10-26T00:29:51.259Z,83.52
2017-10-26T00:32:17.027Z,83.63
2017-10-26T00:34:42.786Z,83.48
2017-10-26T00:37:08.543Z,83.38
2017-10-26T00:39:34.310Z,82.96
2017-10-26T00:42:00.176Z,82.74
2017-10-26T00:44:26.802Z,82.24
2017-10-26T00:46:52.576Z,82.38
2017-10-26T00:49:18.321Z,82.31
2017-10-26T00:51:44.081Z,82.14
2017-10-26T00:54:09.880Z,82.22
2017-10-26T00:56:35.684Z,82.74
2017-10-26T00:59:01.431Z,82.88
2017-10-26T01:01:27.208Z,83.19
2017-10-26T01:03:52.989Z,83.12
2017-10-26T01:06:18.763Z,83.16
2017-10-26T01:08:44.519Z,83.26
2017-10-26T01:11:10.263Z,84.01
2017-10-26T01:13:36.042Z,83.49
2017-10-26T01:16:01.782Z,83.63
2017-10-26T01:18:27.578Z,83.05
2017-10-26T01:20:53.343Z,82.46
2017-10-26T01:23:19.094Z,83.33
2017-10-26T01:25:44.898Z,84.02
2017-10-26T01:28:10.688Z,83.26
2017-10-26T01:30:36.438Z,85.51
2017-10-26T01:33:02.201Z,86.06
2017-10-26T01:35:27.972Z,85.90
2017-10-26T01:37:53.750Z,85.57
2017-10-26T01:40:19.523Z,85.33
2017-10-26T01:42:45.354Z,84.30
2017-10-26T01:45:11.139Z,84.38
2017-10-26T01:47:36.923Z,84.61
2017-10-26T01:50:02.677Z,85.79
2017-10-26T01:52:28.556Z,86.58
2017-10-26T01:54:54.320Z,86.97
2017-10-26T01:57:20.106Z,87.62
2017-10-26T01:59:45.868Z,88.37
2017-10-26T02:02:11.644Z,88.49
2017-10-26T02:04:37.470Z,88.78
2017-10-26T02:07:03.299Z,88.85
2017-10-26T02:09:29.085Z,88.54
2017-10-26T02:11:54.867Z,88.38
2017-10-26T02:14:20.643Z,88.38
2017-10-26T02:16:46.408Z,89.16
2017-10-26T02:19:12.167Z,89.89
2017-10-26T02:21:37.951Z,90.19
2017-10-26T02:24:03.725Z,90.36
2017-10-26T02:26:29.503Z,89.94
2017-10-26T02:29:07.815Z,89.91
2017-10-26T02:31:33.636Z,89.76
2017-10-26T02:33:59.379Z,89.88
2017-10-26T02:36:25.183Z,90.08
2017-10-26T02:38:50.960Z,90.16
2017-10-26T02:41:16.721Z,91.11
2017-10-26T02:43:42.496Z,91.43
2017-10-26T02:46:08.292Z,91.49
2017-10-26T02:48:34.071Z,91.82
2017-10-26T02:50:59.839Z,91.56
2017-10-26T02:53:25.591Z,91.56
2017-10-26T02:55:51.346Z,90.93
2017-10-26T02:58:17.112Z,90.48
2017-10-26T03:00:42.908Z,90.04
2017-10-26T03:03:08.740Z,89.94
2017-10-26T03:05:34.535Z,89.77
2017-10-26T03:08:00.332Z,89.61
2017-10-26T03:10:26.087Z,89.74
2017-10-26T03:12:51.908Z,89.78
2017-10-26T03:15:17.663Z,89.72
2017-10-26T03:17:43.417Z,89.90
2017-10-26T03:20:09.236Z,89.98
2017-10-26T03:22:37.067Z,90.24
2017-10-26T03:25:02.941Z,90.40
2017-10-26T03:27:28.711Z,90.65
2017-10-26T03:29:54.480Z,91.10
2017-10-26T03:32:20.232Z,90.77
2017-10-26T03:34:46.005Z,90.73
2017-10-26T03:37:11.783Z,90.40
2017-10-26T03:39:37.523Z,89.88
2017-10-26T03:42:03.312Z,90.03
2017-10-26T03:44:29.064Z,89.09
2017-10-26T03:46:54.882Z,88.92
2017-10-26T03:49:20.651Z,89.11
2017-10-26T03:51:46.398Z,88.83
2017-10-26T03:54:12.152Z,88.53
2017-10-26T03:56:38.010Z,88.69
2017-10-26T03:59:03.786Z,89.10
2017-10-26T04:01:29.538Z,89.12
2017-10-26T04:03:55.295Z,88.89
2017-10-26T04:06:21.096Z,89.38
2017-10-26T04:08:46.838Z,89.75
2017-10-26T04:11:12.639Z,89.32
2017-10-26T04:13:38.419Z,89.27
2017-10-26T04:16:04.211Z,89.75
2017-10-26T04:18:30.005Z,90.04
2017-10-26T04:20:55.779Z,90.07
2017-10-26T04:23:21.586Z,89.90
2017-10-26T04:25:47.401Z,89.78
2017-10-26T04:28:13.251Z,89.83
2017-10-26T04:30:39.018Z,89.99
2017-10-26T04:33:04.940Z,89.99
2017-10-26T04:35:30.765Z,89.22
2017-10-26T04:37:56.534Z,89.25
2017-10-26T04:40:22.314Z,88.99
2017-10-26T04:42:48.083Z,88.80
2017-10-26T04:45:13.872Z,88.12
2017-10-26T04:47:39.706Z,88.02
2017-10-26T04:50:05.463Z,87.14
2017-10-26T04:52:31.224Z,86.93
2017-10-26T04:54:57.896Z,87.96
2017-10-26T04:57:23.666Z,87.91
2017-10-26T04:59:49.443Z,87.27
2017-10-26T05:02:15.216Z,86.89
2017-10-26T05:04:41.026Z,86.09
2017-10-26T05:07:06.789Z,86.05
2017-10-26T05:09:32.557Z,85.57
2017-10-26T05:11:58.302Z,85.99
2017-10-26T05:14:24.082Z,86.68
2017-10-26T05:16:49.848Z,86.80
2017-10-26T05:19:15.619Z,86.93
2017-10-26T05:21:41.368Z,86.87
2017-10-26T05:24:07.143Z,86.68
2017-10-26T05:26:32.905Z,86.37
2017-10-26T05:28:58.679Z,86.19
2017-10-26T05:31:24.435Z,85.50
2017-10-26T05:33:50.217Z,85.09
2017-10-26T05:36:15.998Z,85.01
2017-10-26T05:38:41.755Z,85.44
2017-10-26T05:41:07.713Z,85.61
2017-10-26T05:43:33.504Z,86.02
2017-10-26T05:45:59.275Z,86.09
2017-10-26T05:48:25.060Z,86.06
2017-10-26T05:50:50.864Z,86.64
2017-10-26T05:53:16.632Z,86.14
2017-10-26T05:55:42.409Z,86.66
2017-10-26T05:58:08.193Z,88.42
2017-10-26T06:00:33.959Z,88.28
2017-10-26T06:02:59.727Z,88.51
2017-10-26T06:05:25.480Z,88.65
2017-10-26T06:07:51.255Z,88.29
2017-10-26T06:10:17.054Z,88.90
2017-10-26T06:12:42.794Z,89.11
2017-10-26T06:15:08.571Z,88.44
2017-10-26T06:17:34.318Z,87.81
2017-10-26T06:20:00.063Z,87.38
2017-10-26T06:22:25.831Z,86.88
2017-10-26T06:24:51.583Z,87.06
2017-10-26T06:27:17.427Z,86.92
2017-10-26T06:29:43.184Z,86.42
2017-10-26T06:32:08.954Z,85.94
2017-10-26T06:34:34.742Z,85.57
2017-10-26T06:37:00.536Z,84.75
2017-10-26T06:39:26.290Z,84.14
2017-10-26T06:41:52.044Z,84.14
2017-10-26T06:44:17.808Z,84.22
2017-10-26T06:46:43.565Z,85.76
2017-10-26T06:49:09.364Z,87.07
2017-10-26T06:51:35.118Z,87.94
2017-10-26T06:54:00.874Z,88.72
2017-10-26T06:56:26.655Z,88.57
2017-10-26T06:58:52.438Z,88.38
2017-10-26T07:01:18.200Z,88.02
2017-10-26T07:03:43.957Z,87.50
2017-10-26T07:06:09.769Z,86.99
2017-10-26T07:08:35.555Z,86.81
2017-10-26T07:11:01.299Z,86.48
2017-10-26T07:13:27.064Z,86.68
2017-10-26T07:15:52.832Z,87.23
2017-10-26T07:18:18.600Z,88.15
2017-10-26T07:20:44.339Z,88.24
2017-10-26T07:23:10.106Z,88.57
2017-10-26T07:25:35.858Z,88.85
2017-10-26T07:28:01.635Z,89.38
2017-10-26T07:30:27.373Z,89.51
2017-10-26T07:32:53.152Z,89.34
2017-10-26T07:35:18.927Z,89.13
2017-10-26T07:37:44.670Z,88.95
2017-10-26T07:40:10.469Z,89.12
2017-10-26T07:42:36.231Z,88.88
2017-10-26T07:45:02.023Z,88.28
2017-10-26T07:47:27.823Z,88.05
2017-10-26T07:49:53.590Z,88.02
2017-10-26T07:52:19.351Z,87.12
2017-10-26T07:54:45.118Z,86.77
2017-10-26T07:57:10.899Z,85.12
2017-10-26T07:59:36.643Z,85.19
2017-10-26T08:02:02.428Z,85.61
2017-10-26T08:04:28.216Z,85.46
2017-10-26T08:06:53.964Z,85.68
2017-10-26T08:09:19.735Z,85.02
2017-10-26T08:11:45.507Z,83.91
2017-10-26T08:14:11.304Z,82.71
2017-10-26T08:16:37.056Z,82.47
2017-10-26T08:19:02.817Z,82.86
2017-10-26T08:21:28.621Z,84.04
2017-10-26T08:23:54.366Z,83.04
2017-10-26T08:26:20.161Z,83.81
2017-10-26T08:28:45.962Z,84.01
2017-10-26T08:31:11.709Z,83.37
2017-10-26T08:33:37.495Z,82.58
2017-10-26T08:36:03.310Z,81.35
2017-10-26T08:38:29.089Z,82.14
2017-10-26T08:40:54.863Z,82.11
2017-10-26T08:43:20.608Z,82.77
2017-10-26T08:45:46.425Z,81.32
2017-10-26T08:48:12.167Z,80.25
2017-10-26T08:50:37.956Z,79.87
2017-10-26T08:53:03.778Z,78.46
2017-10-26T08:55:29.539Z,77.24
2017-10-26T08:57:55.283Z,78.26
2017-10-26T09:00:21.123Z,78.03
2017-10-26T09:02:46.933Z,78.90
2017-10-26T09:05:12.733Z,79.07
2017-10-26T09:07:38.507Z,78.22
2017-10-26T09:10:04.272Z,78.81
2017-10-26T09:12:30.055Z,78.85
2017-10-26T09:14:55.848Z,76.89
2017-10-26T09:17:21.623Z,74.40
2017-10-26T09:19:47.411Z,72.31
2017-10-26T09:22:13.172Z,69.68
2017-10-26T09:24:38.938Z,67.29
2017-10-26T09:27:04.728Z,64.32
2017-10-26T09:29:30.543Z,61.04
2017-10-26T09:31:56.306Z,59.86
2017-10-26T09:34:22.094Z,59.20
2017-10-26T09:36:47.876Z,56.63
2017-10-26T09:39:13.619Z,54.30
2017-10-26T09:41:39.404Z,53.30
2017-10-26T09:44:05.187Z,51.11
2017-10-26T09:46:30.948Z,48.38
2017-10-26T09:48:56.750Z,48.08
2017-10-26T09:51:22.512Z,48.48
2017-10-26T09:53:48.436Z,46.49
2017-10-26T09:56:14.207Z,45.17
2017-10-26T09:58:40.007Z,46.68
2017-10-26T10:01:05.808Z,45.95
2017-10-26T10:03:31.599Z,45.09
2017-10-26T10:05:57.380Z,44.57
2017-10-26T10:08:23.152Z,43.34
2017-10-26T10:10:48.957Z,43.33
2017-10-26T10:13:14.727Z,44.58
2017-10-26T10:15:40.522Z,45.18
2017-10-26T10:18:06.298Z,44.45
2017-10-26T10:20:32.107Z,41.17
2017-10-26T10:22:57.896Z,40.69
2017-10-26T10:25:23.714Z,41.06
2017-10-26T10:27:49.504Z,41.61
2017-10-26T10:30:15.279Z,41.89
2017-10-26T10:32:41.089Z,41.15
2017-10-26T10:35:06.859Z,40.52
2017-10-26T10:37:32.638Z,40.92
2017-10-26T10:39:58.406Z,39.74
2017-10-26T10:42:24.206Z,39.67
2017-10-26T10:44:50.023Z,40.01
2017-10-26T10:47:15.827Z,41.60
2017-10-26T10:49:41.619Z,40.43
2017-10-26T10:52:07.416Z,40.91
2017-10-26T10:54:33.212Z,39.26
2017-10-26T10:56:59.019Z,39.75
2017-10-26T10:59:31.028Z,39.68
2017-10-26T11:01:56.827Z,41.99
2017-10-26T11:04:22.585Z,41.21
2017-10-26T11:06:48.344Z,40.62
2017-10-26T11:09:14.143Z,39.92
2017-10-26T11:11:39.911Z,39.92
2017-10-26T11:14:05.681Z,41.01
2017-10-26T11:16:31.489Z,39.94
2017-10-26T11:18:57.252Z,38.70
2017-10-26T11:21:23.045Z,40.09
2017-10-26T11:23:48.799Z,40.37
2017-10-26T11:26:14.590Z,38.77
2017-10-26T11:28:40.335Z,38.89
2017-10-26T11:31:06.141Z,39.45
2017-10-26T11:33:31.920Z,39.68
2017-10-26T11:35:57.687Z,39.98
2017-10-26T11:38:23.487Z,41.00
2017-10-26T11:40:49.294Z,41.85
2017-10-26T11:43:15.092Z,40.58
2017-10-26T11:45:40.872Z,41.04
2017-10-26T11:48:06.646Z,42.04
2017-10-26T11:50:32.479Z,42.54
2017-10-26T11:52:58.248Z,43.69
2017-10-26T11:55:24.023Z,44.06
2017-10-26T11:57:49.854Z,44.75
2017-10-26T12:00:15.709Z,46.05
2017-10-26T12:02:41.499Z,46.37
2017-10-26T12:05:07.284Z,45.21
2017-10-26T12:07:33.080Z,45.20
2017-10-26T12:09:58.852Z,44.56
2017-10-26T12:12:24.642Z,44.17
2017-10-26T12:14:50.447Z,43.53
2017-10-26T12:17:16.207Z,44.44
2017-10-26T12:19:42.008Z,43.53
2017-10-26T12:22:07.777Z,42.25
2017-10-26T12:24:33.558Z,43.09
2017-10-26T12:26:59.360Z,43.07
2017-10-26T12:29:25.126Z,42.77
2017-10-26T12:31:50.910Z,42.84
2017-10-26T12:34:16.745Z,43.00
2017-10-26T12:36:42.590Z,43.99
2017-10-26T12:39:08.409Z,44.16
2017-10-26T12:41:34.163Z,42.53
2017-10-26T12:43:59.951Z,41.36
2017-10-26T12:46:25.759Z,40.76
2017-10-26T12:48:51.535Z,41.08
2017-10-26T12:51:17.307Z,42.75
2017-10-26T12:53:43.154Z,43.70
2017-10-26T12:56:09.087Z,43.64
2017-10-26T12:58:34.871Z,42.86
2017-10-26T13:01:00.663Z,43.47
2017-10-26T13:03:26.491Z,43.78
2017-10-26T13:05:52.251Z,45.42
2017-10-26T13:08:18.052Z,47.08
2017-10-26T13:10:43.812Z,47.49
2017-10-26T13:13:09.640Z,47.40
2017-10-26T13:15:35.422Z,48.35
2017-10-26T13:18:01.207Z,49.26
2017-10-26T13:20:26.992Z,50.94
2017-10-26T13:22:52.786Z,51.72
2017-10-26T13:25:18.612Z,53.52
2017-10-26T13:27:44.371Z,53.83
2017-10-26T13:30:10.147Z,53.52
2017-10-26T13:32:35.911Z,53.03
2017-10-26T13:35:01.674Z,52.52
2017-10-26T13:37:27.440Z,52.21
2017-10-26T13:39:53.199Z,50.90
2017-10-26T13:42:19.043Z,50.08
2017-10-26T13:44:44.834Z,49.75
2017-10-26T13:47:11.783Z,47.75
2017-10-26T13:49:37.552Z,47.57
2017-10-26T13:52:03.303Z,47.55
2017-10-26T13:54:29.198Z,47.27
2017-10-26T13:56:54.986Z,47.93
2017-10-26T13:59:20.752Z,47.73
2017-10-26T14:01:46.581Z,47.51
2017-10-26T14:04:12.337Z,47.17
2017-10-26T14:06:38.164Z,46.75
2017-10-26T14:09:04.035Z,48.55
2017-10-26T14:11:29.793Z,48.46
2017-10-26T14:13:55.579Z,48.36
2017-10-26T14:16:21.407Z,48.33
2017-10-26T14:18:47.148Z,49.84
2017-10-26T14:21:12.943Z,50.83
2017-10-26T14:23:38.767Z,51.11
2017-10-26T14:26:04.588Z,52.53
2017-10-26T14:28:30.403Z,53.47
2017-10-26T14:30:56.163Z,54.48
2017-10-26T14:33:21.946Z,54.55
2017-10-26T14:35:47.777Z,55.05
2017-10-26T14:38:13.535Z,56.32
2017-10-26T14:40:39.332Z,57.14
2017-10-26T14:43:05.114Z,56.72
2017-10-26T14:45:30.880Z,56.56
2017-10-26T14:47:56.644Z,55.81
2017-10-26T14:50:22.395Z,54.96
2017-10-26T14:52:48.188Z,54.73
2017-10-26T14:55:13.987Z,53.44
2017-10-26T14:57:39.728Z,52.37
2017-10-26T15:00:05.486Z,51.11
2017-10-26T15:02:31.248Z,49.69
2017-10-26T15:04:57.017Z,50.44
2017-10-26T15:07:22.798Z,50.23
2017-10-26T15:09:48.559Z,49.75
2017-10-26T15:12:14.327Z,49.20
2017-10-26T15:14:40.090Z,49.37
2017-10-26T15:17:05.889Z,49.71
2017-10-26T15:19:31.636Z,50.06
2017-10-26T15:21:57.401Z,50.20
2017-10-26T15:24:23.325Z,49.70
2017-10-26T15:26:49.775Z,48.83
2017-10-26T15:29:16.931Z,48.36
2017-10-26T15:31:44.123Z,48.87
2017-10-26T15:34:11.729Z,49.11
2017-10-26T15:36:39.458Z,49.81
2017-10-26T15:39:06.484Z,50.36
2017-10-26T15:41:33.155Z,50.27
2017-10-26T15:43:59.217Z,51.11
2017-10-26T15:46:24.982Z,51.46
2017-10-26T15:48:50.822Z,52.37
2017-10-26T15:51:16.603Z,53.06
2017-10-26T15:53:42.467Z,53.85
2017-10-26T15:56:08.458Z,55.54
2017-10-26T15:58:38.138Z,56.60
2017-10-26T16:01:03.894Z,57.03
2017-10-26T16:03:29.642Z,58.55
2017-10-26T16:05:55.419Z,59.37
2017-10-26T16:08:21.199Z,59.80
2017-10-26T16:10:46.964Z,60.44
2017-10-26T16:13:12.715Z,60.93
2017-10-26T16:15:38.487Z,61.02
2017-10-26T16:18:04.273Z,61.83
2017-10-26T16:20:30.020Z,62.32
2017-10-26T16:22:56.238Z,62.77
2017-10-26T16:25:22.024Z,63.35
2017-10-26T16:27:47.791Z,63.81
2017-10-26T16:30:13.558Z,63.74
2017-10-26T16:32:39.316Z,63.94
2017-10-26T16:35:05.107Z,64.28
2017-10-26T16:37:30.879Z,65.31
2017-10-26T16:39:56.623Z,65.58
2017-10-26T16:42:22.382Z,65.88
2017-10-26T16:44:48.152Z,66.62
2017-10-26T16:47:14.022Z,67.13
2017-10-26T16:49:39.850Z,67.17
2017-10-26T16:52:05.646Z,67.42
2017-10-26T16:54:31.436Z,67.21
2017-10-26T16:56:57.195Z,67.72
2017-10-26T16:59:23.003Z,67.93
2017-10-26T17:01:48.763Z,68.62
2017-10-26T17:04:14.554Z,68.79
2017-10-26T17:06:40.304Z,68.96
2017-10-26T17:09:06.079Z,69.52
2017-10-26T17:11:31.835Z,69.83
2017-10-26T17:13:57.590Z,70.59
2017-10-26T17:16:23.368Z,70.54
2017-10-26T17:18:49.139Z,70.92
2017-10-26T17:21:14.899Z,70.89
2017-10-26T17:23:40.681Z,70.81
2017-10-26T17:28:47.437Z,71.07
2017-10-26T17:31:13.200Z,71.54
2017-10-26T17:33:38.988Z,71.48
2017-10-26T17:36:04.746Z,71.39
2017-10-26T17:38:30.523Z,71.70
2017-10-26T17:40:56.335Z,72.78
2017-10-26T17:43:22.101Z,72.48
2017-10-26T17:45:47.866Z,73.63
2017-10-26T17:48:13.688Z,73.29
2017-10-26T17:50:39.451Z,73.68
2017-10-26T17:53:05.235Z,73.48
2017-10-26T17:55:31.000Z,74.00
2017-10-26T17:57:56.783Z,73.34
2017-10-26T18:00:22.563Z,73.20
2017-10-26T18:02:48.330Z,72.91
2017-10-26T18:05:14.103Z,73.12
2017-10-26T18:07:39.896Z,73.05
2017-10-26T18:10:05.691Z,73.27
2017-10-26T18:12:31.452Z,73.67
2017-10-26T18:14:57.235Z,73.39
2017-10-26T18:17:23.021Z,73.36
2017-10-26T18:19:48.787Z,73.73
2017-10-26T18:22:14.544Z,73.57
2017-10-26T18:24:40.303Z,72.79
2017-10-26T18:27:06.105Z,73.25
2017-10-26T18:29:31.843Z,73.77
2017-10-26T18:31:57.596Z,74.30
2017-10-26T18:34:23.368Z,73.77
2017-10-26T18:36:49.147Z,73.60
2017-10-26T18:39:14.907Z,73.48
2017-10-26T18:41:40.670Z,73.65
2017-10-26T18:44:06.455Z,74.12
2017-10-26T18:46:32.201Z,73.84
2017-10-26T18:48:57.971Z,73.75
2017-10-26T18:51:23.743Z,73.87
2017-10-26T18:53:49.514Z,74.98
2017-10-26T18:56:15.279Z,74.83
2017-10-26T18:58:41.067Z,75.29
2017-10-26T19:01:06.804Z,75.16
2017-10-26T19:03:32.580Z,74.83
2017-10-26T19:05:58.363Z,75.05
2017-10-26T19:08:24.122Z,76.16
2017-10-26T19:10:49.890Z,75.53
2017-10-26T19:13:16.747Z,75.84
2017-10-26T19:15:42.495Z,75.46
2017-10-26T19:18:08.304Z,75.50
2017-10-26T19:20:34.060Z,75.60
2017-10-26T19:22:59.838Z,75.71
2017-10-26T19:25:25.584Z,76.03
2017-10-26T19:27:51.343Z,76.31
2017-10-26T19:30:17.125Z,77.08
2017-10-26T19:32:42.886Z,76.92
2017-10-26T19:35:08.667Z,76.54
2017-10-26T19:37:34.434Z,76.26
2017-10-26T19:40:00.176Z,75.97
2017-10-26T19:42:25.953Z,76.23
2017-10-26T19:44:51.748Z,76.64
2017-10-26T19:47:17.507Z,76.89
2017-10-26T19:49:43.268Z,76.78
2017-10-26T19:52:09.044Z,76.38
2017-10-26T19:54:34.791Z,75.98
2017-10-26T19:57:00.582Z,76.29
2017-10-26T19:59:26.335Z,76.04
2017-10-26T20:01:52.095Z,75.80
2017-10-26T20:04:17.873Z,75.80
2017-10-26T20:06:43.619Z,76.09
2017-10-26T20:09:09.406Z,76.59
2017-10-26T20:11:35.169Z,76.92
2017-10-26T20:14:00.928Z,77.02
2017-10-26T20:16:26.699Z,76.21
2017-10-26T20:18:52.502Z,76.17
2017-10-26T20:21:18.296Z,76.19
2017-10-26T20:23:44.098Z,76.41
2017-10-26T20:26:09.858Z,76.52
2017-10-26T20:28:35.648Z,77.67
2017-10-26T20:31:01.472Z,77.73
2017-10-26T20:33:27.319Z,77.31
2017-10-26T20:35:53.079Z,77.37
2017-10-26T20:38:18.867Z,77.57
2017-10-26T20:40:44.631Z,77.93
2017-10-26T20:43:10.362Z,78.62
2017-10-26T20:45:36.165Z,78.36
2017-10-26T20:48:01.974Z,78.64
2017-10-26T20:53:32.645Z,78.13
2017-10-26T20:56:04.463Z,78.20
2017-10-26T20:58:36.468Z,79.43
2017-10-26T21:01:08.399Z,79.47
2017-10-26T21:03:40.163Z,78.64
2017-10-26T21:06:12.171Z,78.22
2017-10-26T21:08:44.124Z,78.24
2017-10-26T21:11:16.093Z,78.44
2017-10-26T21:13:47.949Z,78.43
2017-10-26T21:16:13.719Z,78.03
2017-10-26T21:18:39.543Z,78.53
2017-10-26T21:21:05.288Z,77.94
2017-10-26T21:23:31.087Z,77.62
2017-10-26T21:25:56.939Z,77.49
2017-10-26T21:28:22.698Z,76.66
2017-10-26T21:30:48.468Z,76.14
2017-10-26T21:33:14.236Z,76.70
2017-10-26T21:35:39.999Z,76.77
2017-10-26T21:38:05.867Z,76.81
2017-10-26T21:40:31.611Z,77.34
2017-10-26T21:42:57.392Z,78.23
2017-10-26T21:45:23.155Z,78.31
2017-10-26T21:47:48.890Z,78.11
2017-10-26T21:50:14.648Z,77.44
2017-10-26T21:52:40.427Z,77.04
2017-10-26T21:55:06.172Z,77.11
2017-10-26T21:57:31.976Z,77.61
2017-10-26T21:59:57.734Z,78.18
2017-10-26T22:02:23.587Z,79.03
2017-10-26T22:04:49.455Z,79.19
2017-10-26T22:07:15.223Z,79.36
2017-10-26T22:09:41.075Z,80.78
2017-10-26T22:12:06.835Z,80.37
2017-10-26T22:14:32.600Z,80.27
2017-10-26T22:16:58.359Z,81.24
2017-10-26T22:19:24.128Z,81.18
2017-10-26T22:21:49.867Z,81.16
2017-10-26T22:24:15.714Z,81.39
2017-10-26T22:26:41.502Z,82.15
2017-10-26T22:29:07.271Z,80.80
2017-10-26T22:31:33.040Z,80.19
2017-10-26T22:33:58.823Z,80.35
2017-10-26T22:36:24.576Z,81.18
2017-10-26T22:38:50.328Z,81.72
2017-10-26T22:41:16.112Z,82.02
2017-10-26T22:43:41.887Z,81.18
2017-10-26T22:46:07.681Z,80.68
2017-10-26T22:48:33.451Z,80.27
2017-10-26T22:50:59.216Z,79.32
2017-10-26T22:53:25.007Z,79.47
2017-10-26T22:55:50.834Z,80.73
2017-10-26T22:58:16.580Z,81.71
2017-10-26T23:00:42.380Z,81.92
2017-10-26T23:03:08.127Z,82.18
2017-10-26T23:05:33.862Z,82.25
2017-10-26T23:07:59.664Z,82.67
2017-10-26T23:10:25.428Z,82.91
2017-10-26T23:12:51.168Z,82.97
2017-10-26T23:15:17.028Z,82.83
2017-10-26T23:17:42.775Z,82.80
2017-10-26T23:20:08.547Z,83.08
2017-10-26T23:22:34.319Z,83.79
2017-10-26T23:25:00.125Z,84.58
2017-10-26T23:27:25.884Z,84.63
2017-10-26T23:29:51.667Z,84.58
2017-10-26T23:32:17.425Z,84.90
2017-10-26T23:34:43.195Z,85.01
2017-10-26T23:37:09.027Z,84.76
2017-10-26T23:39:34.846Z,84.70
2017-10-26T23:42:00.607Z,84.62
2017-10-26T23:44:26.368Z,84.85
2017-10-26T23:46:52.147Z,85.08
2017-10-26T23:49:17.896Z,85.29
2017-10-26T23:51:43.650Z,85.74
2017-10-26T23:54:09.518Z,86.11
2017-10-26T23:56:35.259Z,86.64
2017-10-26T23:59:01.006Z,86.55
